ADDS METAR Data INFO
IDs: Format: Raw Decoded Include TAF

Data at: 0730 UTC 18 Oct 2017

KOXB 180653Z AUTO 00000KT 10SM CLR 04/03 A3034 RMK AO2 SLP274 T00390033
KOXB 180553Z AUTO 00000KT 10SM CLR 04/04 A3034 RMK AO2 SLP275 T00440039 10067 20039 57002
KOXB 180453Z AUTO 00000KT 10SM CLR 04/04 A3035 RMK AO2 SLP275 T00390039 401440039
KOXB 180353Z AUTO 00000KT 10SM CLR 04/04 A3035 RMK AO2 SLP276 T00440039
KOXB 180253Z AUTO 00000KT 10SM CLR 05/04 A3035 RMK AO2 SLP277 T00500044 53006
KOXB 180153Z AUTO 00000KT 10SM CLR 06/05 A3034 RMK AO2 SLP274 T00560050
KOXB 180053Z AUTO 00000KT 10SM CLR 06/05 A3033 RMK AO2 SLP272 T00560050
KOXB 172353Z AUTO 00000KT 10SM CLR 07/06 A3033 RMK AO2 SLP271 T00670061 10144 20067 53005
KOXB 172253Z AUTO 00000KT 10SM CLR 08/06 A3032 RMK AO2 SLP267 T00830061
KOXB 172153Z AUTO VRB03KT 10SM CLR 12/05 A3031 RMK AO2 SLP263 T01220050
KOXB 172053Z AUTO 07006KT 10SM CLR 13/04 A3032 RMK AO2 SLP266 T01330044 56002
KOXB 171953Z AUTO 05007KT 10SM CLR 14/04 A3032 RMK AO2 SLP268 T01390044
KOXB 171853Z AUTO 05007KT 10SM CLR 14/04 A3032 RMK AO2 SLP265 T01390044
KOXB 171753Z AUTO 03008KT 360V070 10SM CLR 14/04 A3032 RMK AO2 SLP268 T01440039 10144 20061 58007
KOXB 171653Z AUTO 04011KT 10SM CLR 14/04 A3034 RMK AO2 SLP273 T01390044
KOXB 171553Z AUTO 04010KT 10SM FEW034 14/05 A3035 RMK AO2 SLP276 T01390050
KOXB 171453Z AUTO 03011KT 10SM FEW030 12/06 A3035 RMK AO2 SLP275 T01220056 51012
KOXB 171353Z AUTO 03012G18KT 10SM BKN030 12/06 A3034 RMK AO2 SLP273 T01170056
KOXB 171253Z AUTO 33007KT 10SM FEW030 08/05 A3033 RMK AO2 SLP270 T00830050
KOXB 171153Z AUTO 32007KT 10SM CLR 06/04 A3031 RMK AO2 SLP263 70019 T00610044 10117 20056 51018
KOXB 171053Z AUTO 34007KT 10SM CLR 07/03 A3029 RMK AO2 SLP257 T00720028
KOXB 170953Z AUTO 01010KT 10SM CLR 08/04 A3028 RMK AO2 SLP251 T00830039
KOXB 170853Z AUTO 01009G17KT 10SM CLR 09/04 A3026 RMK AO2 SLP245 T00940044 53011
KOXB 170753Z AUTO 02012KT 10SM CLR 10/04 A3024 RMK AO2 SLP239 T01000044
KOXB 170653Z AUTO 03012G22KT 10SM CLR 11/04 A3023 RMK AO2 SLP236 T01110044
KOXB 170553Z AUTO 01008G17KT 10SM CLR 12/05 A3022 RMK AO2 SLP234 T01170050 10117 20078 51009
KOXB 170453Z AUTO 36007KT 10SM CLR 09/07 A3022 RMK AO2 SLP231 T00890067 402280078
KOXB 170353Z AUTO 33005KT 10SM CLR 08/07 A3021 RMK AO2 SLP230 T00830067
KOXB 170253Z AUTO 33005KT 10SM CLR 09/07 A3020 RMK AO2 SLP225 T00890072 51017
KOXB 170153Z AUTO 34004KT 10SM CLR 09/07 A3019 RMK AO2 SLP221 T00890072
KOXB 170053Z AUTO 34006KT 10SM CLR 10/07 A3016 RMK AO2 SLP213 T01000072
KOXB 162353Z AUTO 34005KT 10SM CLR 11/08 A3015 RMK AO2 SLP208 60001 T01110078 10150 20111 53022
KOXB 162253Z AUTO 35008KT 10SM CLR 12/08 A3012 RMK AO2 SLP198 T01220078
KOXB 162153Z AUTO 34010KT 10SM CLR 13/08 A3009 RMK AO2 SLP188 T01330083
KOXB 162053Z AUTO 35007KT 10SM CLR 14/10 A3008 RMK AO2 SLP186 60001 T01440100 53011
KOXB 161953Z AUTO 36011KT 10SM FEW035 14/11 A3006 RMK AO2 SLP177 T01440106